createdAt,value
2022-12-15T00:00:11.831Z,854.37
2022-12-15T00:02:57.577Z,905.43
2022-12-15T00:05:43.340Z,838.40
2022-12-15T00:08:35.806Z,687.83
2022-12-15T00:11:21.914Z,858.70
2022-12-15T00:14:07.390Z,852.00
2022-12-15T00:16:54.132Z,851.83
2022-12-15T00:19:39.767Z,685.10
2022-12-15T00:22:25.542Z,857.83
2022-12-15T00:25:11.415Z,757.37
2022-12-15T00:27:57.116Z,843.13
2022-12-15T00:30:42.673Z,837.43
2022-12-15T00:33:31.016Z,806.00
2022-12-15T00:36:18.516Z,926.17
2022-12-15T00:38:47.591Z,666.13
2022-12-15T00:41:17.305Z,888.03
2022-12-15T00:43:45.762Z,779.10
2022-12-15T00:46:31.960Z,796.33
2022-12-15T00:49:02.408Z,827.47
2022-12-15T00:51:48.173Z,887.97
2022-12-15T00:54:33.819Z,848.77
2022-12-15T00:57:19.359Z,787.67
2022-12-15T01:00:04.992Z,868.03
2022-12-15T01:02:50.785Z,845.27
2022-12-15T01:05:37.775Z,782.27
2022-12-15T01:08:23.260Z,836.60
2022-12-15T01:11:08.712Z,863.17
2022-12-15T01:13:54.325Z,879.17
2022-12-15T01:16:40.194Z,819.73
2022-12-15T01:19:27.321Z,787.07
2022-12-15T01:21:56.798Z,761.50
2022-12-15T01:24:24.968Z,840.93
2022-12-15T01:26:53.253Z,900.03
2022-12-15T01:29:21.402Z,849.13
2022-12-15T01:31:49.818Z,852.07
2022-12-15T01:34:20.211Z,805.13
2022-12-15T01:36:48.434Z,867.93
2022-12-15T01:39:17.924Z,883.37
2022-12-15T01:41:45.045Z,873.43
2022-12-15T01:44:21.054Z,823.93
2022-12-15T01:46:52.194Z,849.87
2022-12-15T01:49:26.169Z,828.87
2022-12-15T01:51:58.653Z,777.60
2022-12-15T01:54:32.291Z,817.63
2022-12-15T01:57:05.914Z,782.40
2022-12-15T01:59:36.993Z,788.57
2022-12-15T02:02:05.717Z,774.37
2022-12-15T02:04:34.880Z,853.57
2022-12-15T02:07:03.002Z,914.27
2022-12-15T02:09:32.800Z,771.47
2022-12-15T02:12:11.738Z,826.20
2022-12-15T02:15:00.055Z,814.17
2022-12-15T02:17:36.696Z,764.33
2022-12-15T02:20:43.595Z,808.43
2022-12-15T02:23:46.626Z,729.13
2022-12-15T02:26:58.492Z,775.63
2022-12-15T02:29:47.665Z,701.07
2022-12-15T02:32:20.035Z,728.27
2022-12-15T02:34:55.116Z,743.07
2022-12-15T02:37:28.454Z,749.67
2022-12-15T02:39:56.702Z,870.80
2022-12-15T02:42:26.453Z,843.67
2022-12-15T02:44:58.496Z,941.53
2022-12-15T02:47:35.242Z,877.57
2022-12-15T02:50:19.864Z,910.97
2022-12-15T02:53:01.502Z,928.00
2022-12-15T02:55:40.143Z,954.00
2022-12-15T02:58:14.067Z,964.13
2022-12-15T03:00:46.655Z,887.07
2022-12-15T03:03:20.425Z,932.93
2022-12-15T03:05:49.167Z,972.00
2022-12-15T03:08:17.372Z,917.27
2022-12-15T03:10:45.576Z,960.20
2022-12-15T03:13:14.224Z,904.70
2022-12-15T03:15:42.664Z,916.67
2022-12-15T03:18:11.244Z,999.90
2022-12-15T03:20:40.743Z,893.53
2022-12-15T03:23:09.086Z,984.33
2022-12-15T03:25:37.171Z,932.97
2022-12-15T03:28:05.322Z,931.70
2022-12-15T03:30:33.446Z,963.63
2022-12-15T03:33:01.536Z,999.90
2022-12-15T03:35:29.651Z,992.23
2022-12-15T03:37:59.120Z,999.90
2022-12-15T03:40:27.250Z,863.30
2022-12-15T03:42:55.436Z,983.43
2022-12-15T03:45:25.921Z,963.07
2022-12-15T03:47:55.307Z,999.90
2022-12-15T03:50:24.358Z,999.90
2022-12-15T03:52:53.584Z,996.90
2022-12-15T03:55:24.201Z,969.43
2022-12-15T03:57:52.813Z,940.13
2022-12-15T04:00:21.834Z,824.20
2022-12-15T04:02:50.686Z,913.30
2022-12-15T04:05:21.319Z,999.90
2022-12-15T04:07:49.473Z,995.93
2022-12-15T04:10:17.626Z,999.90
2022-12-15T04:12:47.264Z,999.90
2022-12-15T04:15:15.606Z,999.90
2022-12-15T04:17:44.195Z,999.90
2022-12-15T04:20:13.008Z,999.90
2022-12-15T04:22:42.677Z,999.90
2022-12-15T04:25:30.402Z,999.90
2022-12-15T04:28:17.784Z,999.90
2022-12-15T04:31:05.976Z,999.90
2022-12-15T04:33:51.874Z,999.90
2022-12-15T04:36:37.204Z,999.90
2022-12-15T04:39:24.027Z,999.90
2022-12-15T04:42:10.049Z,999.90
2022-12-15T04:44:57.324Z,999.90
2022-12-15T04:47:42.862Z,999.90
2022-12-15T04:50:28.524Z,999.90
2022-12-15T04:53:14.055Z,999.90
2022-12-15T04:55:59.639Z,999.90
2022-12-15T04:58:45.222Z,999.90
2022-12-15T05:01:32.124Z,999.90
2022-12-15T05:04:17.733Z,999.90
2022-12-15T05:07:03.119Z,999.90
2022-12-15T05:09:48.717Z,999.90
2022-12-15T05:12:34.246Z,999.90
2022-12-15T05:15:19.815Z,999.90
2022-12-15T05:18:06.697Z,999.90
2022-12-15T05:20:52.288Z,999.90
2022-12-15T05:23:37.959Z,999.90
2022-12-15T05:26:23.919Z,999.90
2022-12-15T05:29:09.469Z,999.90
2022-12-15T05:31:53.164Z,999.90
2022-12-15T05:34:26.194Z,999.90
2022-12-15T05:36:55.065Z,985.80
2022-12-15T05:39:23.287Z,999.90
2022-12-15T05:41:51.759Z,999.90
2022-12-15T05:44:20.186Z,999.90
2022-12-15T05:46:48.581Z,999.90
2022-12-15T05:49:18.576Z,999.90
2022-12-15T05:51:49.179Z,999.90
2022-12-15T05:54:19.433Z,999.90
2022-12-15T05:56:50.356Z,999.90
2022-12-15T05:59:20.102Z,999.90
2022-12-15T06:01:48.535Z,999.90
2022-12-15T06:04:16.777Z,999.90
2022-12-15T06:06:44.937Z,999.90
2022-12-15T06:09:14.416Z,999.90
2022-12-15T06:11:42.773Z,999.90
2022-12-15T06:14:11.146Z,999.90
2022-12-15T06:16:49.884Z,999.90
2022-12-15T06:19:19.831Z,999.90
2022-12-15T06:21:48.009Z,996.30
2022-12-15T06:24:17.554Z,999.90
2022-12-15T06:26:45.675Z,965.03
2022-12-15T06:29:15.574Z,999.90
2022-12-15T06:31:44.417Z,995.80
2022-12-15T06:34:14.866Z,961.60
2022-12-15T06:36:44.248Z,974.80
2022-12-15T06:39:15.184Z,999.90
2022-12-15T06:41:45.358Z,887.83
2022-12-15T06:44:15.668Z,914.10
2022-12-15T06:46:45.776Z,967.37
2022-12-15T06:49:14.443Z,956.27
2022-12-15T06:51:44.077Z,982.33
2022-12-15T06:54:12.531Z,999.90
2022-12-15T06:56:40.694Z,931.13
2022-12-15T06:59:11.204Z,857.30
2022-12-15T07:01:39.662Z,999.90
2022-12-15T07:04:07.921Z,815.63
2022-12-15T07:06:37.825Z,999.90
2022-12-15T07:09:08.299Z,830.37
2022-12-15T07:11:36.515Z,946.33
2022-12-15T07:14:05.900Z,988.17
2022-12-15T07:16:35.533Z,952.70
2022-12-15T07:19:03.666Z,999.90
2022-12-15T07:21:31.806Z,943.17
2022-12-15T07:24:01.208Z,999.90
2022-12-15T07:26:30.467Z,885.87
2022-12-15T07:28:58.633Z,930.77
2022-12-15T07:31:27.223Z,832.77
2022-12-15T07:33:58.247Z,881.67
2022-12-15T07:36:27.524Z,900.87
2022-12-15T07:39:00.872Z,882.10
2022-12-15T07:41:30.057Z,916.87
2022-12-15T07:43:58.706Z,904.77
2022-12-15T07:46:27.433Z,989.10
2022-12-15T07:48:57.080Z,897.23
2022-12-15T07:51:25.208Z,999.20
2022-12-15T07:53:53.311Z,977.63
2022-12-15T07:56:22.017Z,971.67
2022-12-15T07:58:50.647Z,906.87
2022-12-15T08:01:19.077Z,991.40
2022-12-15T08:03:48.306Z,935.77
2022-12-15T08:06:18.051Z,999.90
2022-12-15T08:08:50.295Z,999.90
2022-12-15T08:11:20.599Z,911.13
2022-12-15T08:14:06.889Z,996.60
2022-12-15T08:16:37.002Z,828.53
2022-12-15T08:19:06.458Z,875.10
2022-12-15T08:21:36.035Z,793.37
2022-12-15T08:24:04.332Z,859.20
2022-12-15T08:26:32.585Z,776.33
2022-12-15T08:29:49.073Z,823.27
2022-12-15T08:31:53.635Z,853.37
2022-12-15T08:34:22.355Z,954.13
2022-12-15T08:36:51.810Z,999.90
2022-12-15T08:39:20.551Z,999.90
2022-12-15T08:41:48.666Z,999.90
2022-12-15T08:44:17.083Z,997.03
2022-12-15T08:46:45.367Z,999.90
2022-12-15T08:49:18.074Z,999.90
2022-12-15T08:51:50.069Z,999.90
2022-12-15T08:54:21.320Z,999.90
2022-12-15T08:56:49.604Z,999.90
2022-12-15T08:59:17.850Z,999.90
2022-12-15T09:01:46.055Z,999.90
2022-12-15T09:04:14.401Z,999.90
2022-12-15T09:06:42.704Z,999.90
2022-12-15T09:09:13.826Z,999.90
2022-12-15T09:11:43.266Z,999.90
2022-12-15T09:14:11.347Z,999.90
2022-12-15T09:16:39.721Z,999.90
2022-12-15T09:19:08.655Z,999.90
2022-12-15T09:21:36.881Z,999.90
2022-12-15T09:24:05.643Z,999.90
2022-12-15T09:26:35.649Z,999.90
2022-12-15T09:29:05.143Z,999.90
2022-12-15T09:31:37.548Z,999.90
2022-12-15T09:34:05.699Z,999.90
2022-12-15T09:36:33.936Z,999.90
2022-12-15T09:39:03.232Z,999.90
2022-12-15T09:41:33.823Z,999.90
2022-12-15T09:44:07.561Z,999.90
2022-12-15T09:47:05.866Z,999.90
2022-12-15T09:49:54.017Z,999.90
2022-12-15T09:52:25.814Z,999.90
2022-12-15T09:54:54.329Z,999.90
2022-12-15T09:57:31.411Z,999.90
2022-12-15T10:00:15.558Z,999.90
2022-12-15T10:03:32.236Z,999.90
2022-12-15T10:06:16.512Z,999.90
2022-12-15T10:08:50.656Z,999.90
2022-12-15T10:11:25.343Z,999.90
2022-12-15T10:14:00.007Z,999.90
2022-12-15T10:16:36.024Z,999.90
2022-12-15T10:19:09.906Z,999.90
2022-12-15T10:21:38.370Z,999.90
2022-12-15T10:24:44.429Z,999.90
2022-12-15T10:27:23.982Z,999.90
2022-12-15T10:30:01.591Z,999.90
2022-12-15T10:32:43.014Z,999.90
2022-12-15T10:35:17.156Z,999.90
2022-12-15T10:37:45.371Z,999.90
2022-12-15T10:40:18.770Z,999.90
2022-12-15T10:42:49.690Z,999.90
2022-12-15T10:45:36.709Z,999.90
2022-12-15T10:48:07.137Z,999.90
2022-12-15T10:50:36.965Z,999.90
2022-12-15T10:53:10.610Z,999.90
2022-12-15T10:55:40.351Z,999.90
2022-12-15T10:58:19.368Z,999.90
2022-12-15T11:00:50.717Z,999.90
2022-12-15T11:03:26.191Z,999.90
2022-12-15T11:05:55.899Z,999.90
2022-12-15T11:08:25.857Z,999.90
2022-12-15T11:11:13.528Z,999.90
2022-12-15T11:13:42.662Z,999.90
2022-12-15T11:16:17.435Z,999.90
2022-12-15T11:18:52.367Z,999.90
2022-12-15T11:21:25.276Z,999.90
2022-12-15T11:24:02.895Z,999.90
2022-12-15T11:26:44.054Z,999.90
2022-12-15T11:29:26.183Z,999.90
2022-12-15T11:31:56.511Z,999.90
2022-12-15T11:34:39.508Z,999.90
2022-12-15T11:37:34.162Z,999.90
2022-12-15T11:40:28.569Z,999.90
2022-12-15T11:43:31.249Z,999.90
2022-12-15T11:46:11.141Z,895.40
2022-12-15T11:49:09.079Z,999.90
2022-12-15T11:51:45.426Z,999.90
2022-12-15T11:54:24.887Z,999.90
2022-12-15T11:57:00.255Z,999.90
2022-12-15T11:59:48.585Z,999.90
2022-12-15T12:02:42.429Z,999.90
2022-12-15T12:05:33.781Z,999.90
2022-12-15T12:08:14.026Z,999.90
2022-12-15T12:10:50.485Z,999.90
2022-12-15T12:13:25.018Z,999.90
2022-12-15T12:16:03.294Z,999.90
2022-12-15T12:18:35.643Z,999.90
2022-12-15T12:21:08.386Z,999.90
2022-12-15T12:23:43.722Z,988.47
2022-12-15T12:26:16.991Z,999.90
2022-12-15T12:28:50.347Z,999.90
2022-12-15T12:31:28.159Z,995.07
2022-12-15T12:34:02.659Z,999.90
2022-12-15T12:36:30.761Z,999.90
2022-12-15T12:39:01.079Z,999.90
2022-12-15T12:41:37.571Z,906.17
2022-12-15T12:44:14.125Z,939.13
2022-12-15T12:46:44.663Z,999.90
2022-12-15T12:49:26.050Z,953.53
2022-12-15T12:51:58.724Z,938.33
2022-12-15T12:54:51.547Z,999.90
2022-12-15T12:57:37.946Z,941.50
2022-12-15T13:00:16.622Z,999.90
2022-12-15T13:03:17.522Z,999.90
2022-12-15T13:05:50.410Z,999.90
2022-12-15T13:08:28.242Z,999.90
2022-12-15T13:10:57.727Z,999.90
2022-12-15T13:13:51.271Z,999.90
2022-12-15T13:16:25.318Z,999.90
2022-12-15T13:18:58.724Z,999.90
2022-12-15T13:21:55.197Z,997.37
2022-12-15T13:24:37.540Z,999.90
2022-12-15T13:27:15.341Z,999.90
2022-12-15T13:30:00.505Z,999.90
2022-12-15T13:32:35.633Z,942.10
2022-12-15T13:35:26.206Z,960.70
2022-12-15T13:37:56.844Z,999.47
2022-12-15T13:40:50.629Z,982.33
2022-12-15T13:43:42.272Z,988.13
2022-12-15T13:46:17.756Z,977.10
2022-12-15T13:48:49.414Z,999.87
2022-12-15T13:51:27.315Z,999.90
2022-12-15T13:53:59.535Z,894.43
2022-12-15T13:56:42.830Z,939.67
2022-12-15T13:59:24.120Z,849.40
2022-12-15T14:01:53.669Z,960.63
2022-12-15T14:04:22.993Z,801.67
2022-12-15T14:06:53.651Z,960.67
2022-12-15T14:09:25.709Z,937.13
2022-12-15T14:11:54.495Z,821.23
2022-12-15T14:14:26.779Z,967.50
2022-12-15T14:17:01.121Z,941.47
2022-12-15T14:19:38.615Z,734.10
2022-12-15T14:22:28.279Z,999.90
2022-12-15T14:25:03.266Z,997.20
2022-12-15T14:27:33.378Z,999.90
2022-12-15T14:30:18.294Z,999.90
2022-12-15T14:32:48.707Z,999.90
2022-12-15T14:35:25.890Z,999.90
2022-12-15T14:37:56.676Z,999.90
2022-12-15T14:40:28.898Z,987.00
2022-12-15T14:42:57.705Z,832.77
2022-12-15T14:45:32.022Z,999.90
2022-12-15T14:48:39.643Z,999.90
2022-12-15T14:50:51.600Z,999.90
2022-12-15T14:53:21.168Z,999.90
2022-12-15T14:55:49.702Z,999.90
2022-12-15T14:58:33.905Z,999.90
2022-12-15T15:01:07.288Z,956.67
2022-12-15T15:03:38.324Z,964.00
2022-12-15T15:06:17.010Z,999.90
2022-12-15T15:08:48.945Z,999.90
2022-12-15T15:11:29.449Z,951.33
2022-12-15T15:14:00.396Z,989.00
2022-12-15T15:16:30.074Z,999.90
2022-12-15T15:19:01.360Z,984.70
2022-12-15T15:21:31.767Z,999.90
2022-12-15T15:24:01.702Z,999.90
2022-12-15T15:26:31.139Z,999.90
2022-12-15T15:28:59.697Z,999.90
2022-12-15T15:31:41.033Z,999.90
2022-12-15T15:34:11.397Z,999.90
2022-12-15T15:36:40.566Z,999.90
2022-12-15T15:39:15.307Z,999.90
2022-12-15T15:41:43.739Z,999.90
2022-12-15T15:44:14.695Z,999.90
2022-12-15T15:46:48.491Z,999.90
2022-12-15T15:49:20.594Z,999.90
2022-12-15T15:51:48.843Z,999.90
2022-12-15T15:54:22.561Z,999.90
2022-12-15T15:56:50.626Z,999.90
2022-12-15T15:59:21.859Z,999.90
2022-12-15T16:01:55.978Z,999.90
2022-12-15T16:04:24.621Z,999.90
2022-12-15T16:06:54.482Z,999.90
2022-12-15T16:09:24.283Z,999.90
2022-12-15T16:11:52.485Z,999.90
2022-12-15T16:14:20.583Z,999.90
2022-12-15T16:16:48.748Z,999.90
2022-12-15T16:19:18.174Z,999.90
2022-12-15T16:21:50.793Z,999.90
2022-12-15T16:24:20.432Z,999.90
2022-12-15T16:26:51.479Z,999.90
2022-12-15T16:29:21.795Z,999.90
2022-12-15T16:31:49.990Z,999.90
2022-12-15T16:34:21.582Z,999.90
2022-12-15T16:36:49.813Z,999.90
2022-12-15T16:39:27.260Z,999.90
2022-12-15T16:41:56.656Z,999.90
2022-12-15T16:44:25.211Z,999.90
2022-12-15T16:46:53.660Z,999.90
2022-12-15T16:49:23.190Z,999.90
2022-12-15T16:51:53.794Z,999.50
2022-12-15T16:54:24.418Z,999.90
2022-12-15T16:56:53.801Z,999.90
2022-12-15T16:59:33.465Z,999.90
2022-12-15T17:02:02.389Z,995.50
2022-12-15T17:04:31.977Z,999.90
2022-12-15T17:07:00.072Z,999.90
2022-12-15T17:09:28.174Z,999.90
2022-12-15T17:12:03.568Z,999.90
2022-12-15T17:14:31.603Z,999.90
2022-12-15T17:16:59.728Z,999.90
2022-12-15T17:19:27.754Z,999.90
2022-12-15T17:21:57.471Z,999.90
2022-12-15T17:24:25.549Z,988.13
2022-12-15T17:26:53.745Z,999.90
2022-12-15T17:29:25.192Z,999.90
2022-12-15T17:31:53.662Z,971.40
2022-12-15T17:34:27.756Z,999.90
2022-12-15T17:36:59.120Z,999.90
2022-12-15T17:39:27.821Z,999.90
2022-12-15T17:42:01.023Z,971.97
2022-12-15T17:44:34.927Z,999.90
2022-12-15T17:47:06.286Z,999.90
2022-12-15T17:49:37.477Z,976.10
2022-12-15T17:52:14.836Z,999.90
2022-12-15T17:54:43.006Z,977.03
2022-12-15T17:57:13.138Z,999.90
2022-12-15T17:59:41.167Z,999.90
2022-12-15T18:02:12.050Z,999.90
2022-12-15T18:04:40.184Z,981.97
2022-12-15T18:07:16.415Z,997.57
2022-12-15T18:09:44.613Z,999.90
2022-12-15T18:12:19.463Z,973.80
2022-12-15T18:14:47.864Z,998.33
2022-12-15T18:17:16.575Z,946.93
2022-12-15T18:19:45.340Z,790.07
2022-12-15T18:22:20.428Z,977.20
2022-12-15T18:24:48.558Z,894.90
2022-12-15T18:27:23.570Z,913.53
2022-12-15T18:29:51.963Z,923.50
2022-12-15T18:32:20.792Z,933.30
2022-12-15T18:34:48.851Z,999.90
2022-12-15T18:37:20.347Z,973.17
2022-12-15T18:39:50.612Z,998.07
2022-12-15T18:42:20.322Z,983.97
2022-12-15T18:44:50.681Z,999.90
2022-12-15T18:47:20.860Z,935.13
2022-12-15T18:49:49.027Z,971.37
2022-12-15T18:52:20.665Z,998.03
2022-12-15T18:54:49.627Z,980.93
2022-12-15T18:57:28.943Z,999.90
2022-12-15T18:59:58.811Z,972.00
2022-12-15T19:02:27.078Z,960.53
2022-12-15T19:04:55.228Z,999.90
2022-12-15T19:07:24.722Z,975.93
2022-12-15T19:09:53.503Z,977.83
2022-12-15T19:12:21.666Z,999.90
2022-12-15T19:14:51.570Z,999.73
2022-12-15T19:17:38.919Z,999.90
2022-12-15T19:20:30.596Z,999.90
2022-12-15T19:23:00.114Z,999.90
2022-12-15T19:25:30.527Z,993.73
2022-12-15T19:28:00.297Z,999.90
2022-12-15T19:30:29.891Z,999.90
2022-12-15T19:32:58.653Z,965.67
2022-12-15T19:35:29.078Z,944.10
2022-12-15T19:38:00.138Z,999.90
2022-12-15T19:40:31.357Z,890.33
2022-12-15T19:43:00.384Z,875.50
2022-12-15T19:45:30.930Z,968.13
2022-12-15T19:47:59.243Z,910.07
2022-12-15T19:50:30.485Z,948.63
2022-12-15T19:53:02.066Z,922.33
2022-12-15T19:55:33.663Z,914.87
2022-12-15T19:58:02.242Z,886.30
2022-12-15T20:00:30.305Z,940.37
2022-12-15T20:02:58.526Z,999.90
2022-12-15T20:05:26.815Z,914.77
2022-12-15T20:07:55.788Z,926.73
2022-12-15T20:10:32.360Z,914.53
2022-12-15T20:13:01.627Z,998.63
2022-12-15T20:15:29.778Z,892.50
2022-12-15T20:17:58.155Z,830.30
2022-12-15T20:20:28.786Z,869.20
2022-12-15T20:23:00.082Z,926.67
2022-12-15T20:25:31.473Z,893.77
2022-12-15T20:28:00.728Z,892.30
2022-12-15T20:30:32.445Z,904.60
2022-12-15T20:33:00.985Z,823.73
2022-12-15T20:35:31.105Z,959.60
2022-12-15T20:37:59.393Z,821.60
2022-12-15T20:40:31.151Z,817.03
2022-12-15T20:42:59.231Z,889.27
2022-12-15T20:45:28.255Z,889.47
2022-12-15T20:47:57.678Z,930.13
2022-12-15T20:50:29.233Z,886.20
2022-12-15T20:52:57.275Z,960.47
2022-12-15T20:55:25.621Z,894.37
2022-12-15T20:57:55.070Z,758.30
2022-12-15T21:00:23.667Z,891.73
2022-12-15T21:02:52.414Z,926.50
2022-12-15T21:05:25.448Z,999.90
2022-12-15T21:07:54.173Z,858.50
2022-12-15T21:10:22.660Z,966.67
2022-12-15T21:12:51.670Z,946.47
2022-12-15T21:15:23.336Z,900.57
2022-12-15T21:18:19.811Z,910.90
2022-12-15T21:20:42.946Z,821.50
2022-12-15T21:23:23.186Z,853.40
2022-12-15T21:25:52.260Z,925.77
2022-12-15T21:28:22.223Z,941.43
2022-12-15T21:30:52.367Z,917.03
2022-12-15T21:33:20.625Z,882.20
2022-12-15T21:35:49.553Z,977.30
2022-12-15T21:38:30.046Z,898.00
2022-12-15T21:41:00.886Z,813.00
2022-12-15T21:43:32.562Z,849.30
2022-12-15T21:46:03.411Z,879.83
2022-12-15T21:48:48.668Z,792.27
2022-12-15T21:51:18.491Z,821.57
2022-12-15T21:53:47.611Z,853.67
2022-12-15T21:56:16.918Z,860.30
2022-12-15T21:58:46.016Z,999.87
2022-12-15T22:01:16.990Z,939.43
2022-12-15T22:03:48.841Z,913.03
2022-12-15T22:06:20.137Z,810.93
2022-12-15T22:08:48.197Z,828.63
2022-12-15T22:11:24.297Z,851.67
2022-12-15T22:13:55.179Z,906.30
2022-12-15T22:16:25.196Z,912.83
2022-12-15T22:18:55.887Z,940.50
2022-12-15T22:21:24.470Z,999.90
2022-12-15T22:23:52.565Z,999.80
2022-12-15T22:26:23.181Z,999.90
2022-12-15T22:28:52.143Z,984.63
2022-12-15T22:31:20.364Z,858.77
2022-12-15T22:33:50.008Z,865.07
2022-12-15T22:36:18.078Z,904.80
2022-12-15T22:38:46.958Z,941.17
2022-12-15T22:41:20.620Z,909.03
2022-12-15T22:43:52.433Z,955.57
2022-12-15T22:46:24.787Z,932.50
2022-12-15T22:48:55.060Z,904.53
2022-12-15T22:51:23.158Z,887.90
2022-12-15T22:53:51.765Z,908.83
2022-12-15T22:56:27.446Z,865.17
2022-12-15T22:59:00.785Z,869.27
2022-12-15T23:01:29.778Z,995.13
2022-12-15T23:03:59.364Z,943.93
2022-12-15T23:06:28.661Z,919.60
2022-12-15T23:08:56.705Z,829.67
2022-12-15T23:11:39.748Z,922.40
2022-12-15T23:14:09.608Z,893.50
2022-12-15T23:16:37.435Z,795.67
2022-12-15T23:19:08.780Z,775.50
2022-12-15T23:21:37.478Z,929.47
2022-12-15T23:24:05.765Z,902.93
2022-12-15T23:26:34.058Z,922.83
2022-12-15T23:29:02.131Z,858.37
2022-12-15T23:31:30.354Z,976.60
2022-12-15T23:33:58.479Z,927.77
2022-12-15T23:36:28.479Z,887.40
2022-12-15T23:38:58.646Z,934.93
2022-12-15T23:41:27.514Z,898.90
2022-12-15T23:43:56.176Z,888.63
2022-12-15T23:46:24.417Z,927.80
2022-12-15T23:48:52.525Z,880.87
2022-12-15T23:51:21.646Z,886.87
2022-12-15T23:53:51.049Z,941.27
2022-12-15T23:56:21.449Z,915.93
2022-12-15T23:58:55.974Z,932.43
